• Join FlightAware (Why Join?)
  • Login
  • US Flag GB Flag 
06:04 EDT


 

Airport Tracker/Info


-or-


 

Live Flight TrackerFlight Track Log ✈ EJA829P ✈ 16-Nov-2013 ✈ KMTH - KVNC

Flight Track Log - Related Links

Times and Time Zones

All times are in EST time to prevent confusion due to time zone crossing. See the EJA829P flight status page for this flight to view local times or setup timezone preferences in your user account.

Time Position Orientation Groundspeed Altitude Reporting Facility
EST Latitude Longitude Course Direction KTS MPH feet Rate Location/Type
09:39 24.7619 -81.0142 338° Northwest 378 435 2,900  Level Miami Center
09:40 24.8342 -81.0464 338° Northwest 229 264 4,600 2,820 Climbing Miami Center
09:41 24.9083 -81.0764 340° North 244 281 8,600 3,480 Climbing Miami Center
09:42 24.9786 -81.1086 337° Northwest 255 293 11,600 2,880 Climbing Miami Center
09:43 25.0592 -81.1411 340° North 284 327 14,400 2,580 Climbing Miami Center
09:44 25.1436 -81.1786 338° Northwest 302 348 16,800 1,800 Climbing Miami Center
09:45 25.2406 -81.2233 337° Northwest 325 374 18,000 600 Climbing Miami Center
09:46 25.3250 -81.2586 339° North 343 395 18,000  Level Miami Center
09:47 25.4261 -81.2989 340° North 365 420 18,000  Level Miami Center
09:48 25.5250 -81.3439 338° Northwest 378 435 18,000  Level Miami Center
09:49 25.6239 -81.3844 340° North 378 435 18,000  Level Miami Center
09:50 25.7292 -81.4300 339° North 378 435 18,000  Level Miami Center
09:51 25.8281 -81.4731 339° North 373 429 18,000 -60 Level Miami Center
09:52 25.9269 -81.5136 340° North 373 429 17,900 -840 Descending Miami Center
09:53 26.0133 -81.5517 338° Northwest 367 422 16,400 -1,740 Descending Miami Center
09:54 26.1081 -81.5925 339° North 367 422 14,500 -2,280 Descending Miami Center
09:55 26.2008 -81.6331 339° North 362 417 11,900 -2,400 Descending Miami Center
09:56 26.2831 -81.6689 339° North 338 389 9,800 -1,500 Descending Miami Center
09:57 26.3633 -81.7044 338° Northwest 315 362 8,900 -420 Descending Miami Center
09:58 26.4394 -81.7378 339° North 298 343 9,000  Climbing Miami Center
09:59 26.5300 -81.7786 338° Northwest 303 349 9,000 -660 Level Miami Center
10:00 26.5972 -81.8281 327° Northwest 302 348 7,700 -1,980 Descending Miami Center
10:01 26.6644 -81.8772 327° Northwest 297 342 5,100 -1,860 Descending Miami Center
10:02 26.7294 -81.9267 326° Northwest 286 329 4,000 -600 Descending Miami Center
10:03 26.7778 -81.9775 317° Northwest 276 318 4,000  Level Miami Center
10:05 26.8667 -82.1167 306° West 250 288 4,000  Level Tampa TRACON
10:06 26.8833 -82.1500 299° West 243 280 4,000 -180 Level Tampa TRACON
10:07 26.9167 -82.2000 307° West 227 261 3,800 -960 Descending Tampa TRACON
10:08 26.9667 -82.2667 310° West 241 277 2,100 -960 Descending Tampa TRACON
10:08 26.9833 -82.3167 291° West 199 229 2,000 -240 Descending Tampa TRACON
10:09 27.0167 -82.3667 307° West 192 221 1,700 -300 Descending Tampa TRACON